createdAt,value
2023-01-26T00:02:05.595Z,94.95
2023-01-26T00:07:07.214Z,95.53
2023-01-26T00:12:08.811Z,100.35
2023-01-26T00:17:10.434Z,107.72
2023-01-26T00:22:12.101Z,113.22
2023-01-26T00:27:13.790Z,110.25
2023-01-26T00:32:15.462Z,111.65
2023-01-26T00:37:17.176Z,100.63
2023-01-26T00:42:18.823Z,113.70
2023-01-26T00:47:20.464Z,111.20
2023-01-26T00:52:22.180Z,121.60
2023-01-26T00:57:26.571Z,115.90
2023-01-26T01:02:28.265Z,123.13
2023-01-26T01:07:29.866Z,109.57
2023-01-26T01:12:31.655Z,119.75
2023-01-26T01:17:34.011Z,110.72
2023-01-26T01:22:37.517Z,104.03
2023-01-26T01:27:39.503Z,107.82
2023-01-26T01:32:41.212Z,101.63
2023-01-26T01:37:42.900Z,109.45
2023-01-26T01:42:49.106Z,108.00
2023-01-26T01:47:51.050Z,109.15
2023-01-26T01:52:55.508Z,113.35
2023-01-26T01:58:01.544Z,113.75
2023-01-26T02:03:15.630Z,111.70
2023-01-26T02:08:19.541Z,120.70
2023-01-26T02:13:23.853Z,112.38
2023-01-26T02:18:25.631Z,113.85
2023-01-26T02:23:42.886Z,114.43
2023-01-26T02:28:47.255Z,110.93
2023-01-26T02:33:49.184Z,118.53
2023-01-26T02:39:20.605Z,128.00
2023-01-26T02:44:22.856Z,149.20
2023-01-26T02:49:44.195Z,150.43
2023-01-26T02:55:04.571Z,159.80
2023-01-26T03:00:14.226Z,134.75
2023-01-26T03:05:16.419Z,144.35
2023-01-26T03:10:18.493Z,138.18
2023-01-26T03:15:42.929Z,126.38
2023-01-26T03:21:04.290Z,141.25
2023-01-26T03:26:27.111Z,126.15
2023-01-26T03:31:30.030Z,139.32
2023-01-26T03:36:31.763Z,135.57
2023-01-26T03:41:53.620Z,148.05
2023-01-26T03:47:13.963Z,140.48
2023-01-26T03:52:35.053Z,146.25
2023-01-26T03:57:37.879Z,151.35
2023-01-26T04:02:57.912Z,130.38
2023-01-26T04:08:23.808Z,124.07
2023-01-26T04:13:54.944Z,123.20
2023-01-26T04:19:21.729Z,130.15
2023-01-26T04:24:24.649Z,120.55
2023-01-26T04:29:30.321Z,127.15
2023-01-26T04:34:32.212Z,120.65
2023-01-26T04:39:34.096Z,136.60
2023-01-26T04:44:35.832Z,120.40
2023-01-26T04:49:38.952Z,135.32
2023-01-26T04:54:41.513Z,116.95
2023-01-26T04:59:43.725Z,123.07
2023-01-26T05:04:45.879Z,121.60
2023-01-26T05:09:49.223Z,113.75
2023-01-26T05:15:19.143Z,129.65
2023-01-26T05:20:31.836Z,116.93
2023-01-26T05:25:43.630Z,119.40
2023-01-26T05:30:48.220Z,119.90
2023-01-26T05:35:50.567Z,104.47
2023-01-26T05:40:52.773Z,118.45
2023-01-26T05:45:54.692Z,124.15
2023-01-26T05:50:58.078Z,114.63
2023-01-26T05:56:00.740Z,111.85
2023-01-26T06:01:05.504Z,122.55
2023-01-26T06:06:17.086Z,123.22
2023-01-26T06:11:33.258Z,131.70
2023-01-26T06:16:41.934Z,133.70
2023-01-26T06:21:44.520Z,124.38
2023-01-26T06:26:49.491Z,130.73
2023-01-26T06:31:53.211Z,127.07
2023-01-26T06:36:56.763Z,123.47
2023-01-26T06:42:04.153Z,114.97
2023-01-26T06:47:07.187Z,120.55
2023-01-26T06:52:31.607Z,129.50
2023-01-26T06:57:41.617Z,133.35
2023-01-26T07:03:06.618Z,124.60
2023-01-26T07:08:08.917Z,134.95
2023-01-26T07:13:10.625Z,108.07
2023-01-26T07:18:12.429Z,125.85
2023-01-26T07:23:14.130Z,115.05
2023-01-26T07:28:15.920Z,113.22
2023-01-26T07:33:18.298Z,114.38
2023-01-26T07:38:20.126Z,122.25
2023-01-26T07:43:21.997Z,106.25
2023-01-26T07:48:25.161Z,112.07
2023-01-26T07:53:29.324Z,121.43
2023-01-26T07:58:31.091Z,120.47
2023-01-26T08:03:32.781Z,112.30
2023-01-26T08:08:34.964Z,126.75
2023-01-26T08:13:36.936Z,128.75
2023-01-26T08:18:39.999Z,128.57
2023-01-26T08:23:42.027Z,131.85
2023-01-26T08:28:44.151Z,125.10
2023-01-26T08:33:48.355Z,121.55
2023-01-26T08:38:51.118Z,122.97
2023-01-26T08:43:53.269Z,109.28
2023-01-26T08:48:55.117Z,108.60
2023-01-26T08:53:56.930Z,105.07
2023-01-26T08:59:00.030Z,96.40
2023-01-26T09:04:03.297Z,104.45
2023-01-26T09:09:05.011Z,116.65
2023-01-26T09:14:06.907Z,102.53
2023-01-26T09:19:08.592Z,112.07
2023-01-26T09:24:11.223Z,122.88
2023-01-26T09:29:13.141Z,126.20
2023-01-26T09:34:14.843Z,121.20
2023-01-26T09:39:17.113Z,107.43
2023-01-26T09:44:23.897Z,118.00
2023-01-26T09:49:43.483Z,112.80
2023-01-26T09:54:49.896Z,100.40
2023-01-26T10:00:02.929Z,111.63
2023-01-26T10:06:01.353Z,109.93
2023-01-26T10:11:43.307Z,96.47
2023-01-26T10:16:49.375Z,102.28
2023-01-26T10:21:53.141Z,89.07
2023-01-26T10:26:58.257Z,100.25
2023-01-26T10:32:00.129Z,97.07
2023-01-26T10:37:29.921Z,92.65
2023-01-26T10:42:34.117Z,86.75
2023-01-26T10:47:36.064Z,99.68
2023-01-26T10:52:37.783Z,101.47
2023-01-26T10:57:42.160Z,99.65
2023-01-26T11:02:50.892Z,111.35
2023-01-26T11:07:58.789Z,105.55
2023-01-26T11:13:20.914Z,113.22
2023-01-26T11:18:31.951Z,103.28
2023-01-26T11:23:58.985Z,101.72
2023-01-26T11:34:38.415Z,101.55
2023-01-26T11:39:58.554Z,93.85
2023-01-26T11:45:03.344Z,94.28
2023-01-26T11:50:23.386Z,92.07
2023-01-26T11:55:29.135Z,88.93
2023-01-26T12:00:42.475Z,84.53
2023-01-26T12:05:49.350Z,97.50
2023-01-26T12:11:23.378Z,83.63
2023-01-26T12:16:36.507Z,83.70
2023-01-26T12:21:43.378Z,77.50
2023-01-26T12:26:49.368Z,73.72
2023-01-26T12:32:12.478Z,73.65
2023-01-26T12:37:47.558Z,73.72
2023-01-26T12:43:24.467Z,61.08
2023-01-26T12:48:36.386Z,71.32
2023-01-26T12:54:01.984Z,71.30
2023-01-26T12:59:47.949Z,57.75
2023-01-26T13:04:50.785Z,53.20
2023-01-26T13:10:20.650Z,53.03
2023-01-26T13:15:28.447Z,54.35
2023-01-26T13:20:49.834Z,51.67
2023-01-26T13:26:19.505Z,54.83
2023-01-26T13:31:33.308Z,56.10
2023-01-26T13:36:39.070Z,59.15
2023-01-26T13:41:47.833Z,54.15
2023-01-26T13:46:58.663Z,53.97
2023-01-26T13:52:00.332Z,58.17
2023-01-26T13:57:07.325Z,59.83
2023-01-26T14:02:22.830Z,42.40
2023-01-26T14:07:38.060Z,45.72
2023-01-26T14:12:46.780Z,43.05
2023-01-26T14:17:58.821Z,39.38
2023-01-26T14:23:18.756Z,47.42
2023-01-26T14:28:23.094Z,34.75
2023-01-26T14:33:25.183Z,38.58
2023-01-26T14:38:39.218Z,36.78
2023-01-26T14:43:40.975Z,36.28
2023-01-26T14:48:58.158Z,36.55
2023-01-26T14:59:04.410Z,38.42
2023-01-26T15:04:25.882Z,39.72
2023-01-26T15:09:28.609Z,36.38
2023-01-26T15:14:48.317Z,39.63
2023-01-26T15:19:52.245Z,34.97
2023-01-26T15:25:01.446Z,30.17
2023-01-26T15:30:04.807Z,28.98
2023-01-26T15:35:27.418Z,26.23
2023-01-26T15:40:30.550Z,23.02
2023-01-26T15:45:36.351Z,24.58
2023-01-26T15:50:38.284Z,22.45
2023-01-26T15:55:40.773Z,36.17
2023-01-26T16:00:42.565Z,24.90
2023-01-26T16:05:47.991Z,26.33
2023-01-26T16:10:50.036Z,32.30
2023-01-26T16:15:53.695Z,32.75
2023-01-26T16:20:55.768Z,35.00
2023-01-26T16:25:57.644Z,32.42
2023-01-26T16:31:02.345Z,35.15
2023-01-26T16:36:04.758Z,36.85
2023-01-26T16:41:12.783Z,46.10
2023-01-26T16:46:14.497Z,41.30
2023-01-26T16:51:23.886Z,41.83
2023-01-26T16:56:25.828Z,37.67
2023-01-26T17:01:33.595Z,38.28
2023-01-26T17:06:35.467Z,36.92
2023-01-26T17:11:37.401Z,30.77
2023-01-26T17:16:39.552Z,39.13
2023-01-26T17:21:41.317Z,45.25
2023-01-26T17:26:43.032Z,40.33
2023-01-26T17:31:44.993Z,29.98
2023-01-26T17:36:46.804Z,29.75
2023-01-26T17:41:48.526Z,28.45
2023-01-26T17:46:50.393Z,31.67
2023-01-26T17:51:52.439Z,31.42
2023-01-26T17:57:19.405Z,24.33
2023-01-26T18:02:21.278Z,32.88
2023-01-26T18:07:24.965Z,19.45
2023-01-26T18:12:26.832Z,18.60
2023-01-26T18:17:28.485Z,19.60
2023-01-26T18:22:30.603Z,18.38
2023-01-26T18:27:32.682Z,18.75
2023-01-26T18:32:34.376Z,21.85
2023-01-26T18:37:36.219Z,21.38
2023-01-26T18:42:37.946Z,21.05
2023-01-26T18:47:39.880Z,23.85
2023-01-26T18:52:42.046Z,29.00
2023-01-26T18:57:43.878Z,26.23
2023-01-26T19:02:45.574Z,29.48
2023-01-26T19:07:47.502Z,27.98
2023-01-26T19:12:52.024Z,38.38
2023-01-26T19:18:21.759Z,44.92
2023-01-26T19:23:23.421Z,58.42
2023-01-26T19:28:26.393Z,54.80
2023-01-26T19:33:32.037Z,51.03
2023-01-26T19:38:36.904Z,52.22
2023-01-26T19:43:38.554Z,57.10
2023-01-26T19:48:40.723Z,51.80
2023-01-26T19:53:46.347Z,46.42
2023-01-26T19:58:53.705Z,49.60
2023-01-26T20:09:07.838Z,43.13
2023-01-26T20:14:10.920Z,48.28
2023-01-26T20:19:13.849Z,55.60
2023-01-26T20:24:16.284Z,48.65
2023-01-26T20:29:19.850Z,45.80
2023-01-26T20:34:22.012Z,52.42
2023-01-26T20:39:26.713Z,43.80
2023-01-26T20:44:28.679Z,43.92
2023-01-26T20:49:30.427Z,53.97
2023-01-26T20:54:32.124Z,49.58
2023-01-26T20:59:33.986Z,60.55
2023-01-26T21:04:36.478Z,57.80
2023-01-26T21:09:38.204Z,58.88
2023-01-26T21:14:40.263Z,58.97
2023-01-26T21:19:42.009Z,58.13
2023-01-26T21:24:43.818Z,43.55
2023-01-26T21:29:45.513Z,45.78
2023-01-26T21:34:47.166Z,43.58
2023-01-26T21:39:48.859Z,45.63
2023-01-26T21:45:09.186Z,55.65
2023-01-26T21:50:11.435Z,52.22
2023-01-26T21:55:13.417Z,48.53
2023-01-26T22:00:15.469Z,44.97
2023-01-26T22:05:17.894Z,59.33
2023-01-26T22:10:20.418Z,47.13
2023-01-26T22:15:22.724Z,49.67
2023-01-26T22:20:24.725Z,53.75
2023-01-26T22:25:27.048Z,46.00
2023-01-26T22:30:28.839Z,58.50
2023-01-26T22:35:31.800Z,55.05
2023-01-26T22:40:33.439Z,51.53
2023-01-26T22:45:35.327Z,56.50
2023-01-26T22:50:37.019Z,53.85
2023-01-26T22:55:41.080Z,65.88
2023-01-26T23:00:42.879Z,72.35
2023-01-26T23:05:45.711Z,71.18
2023-01-26T23:10:48.314Z,80.07
2023-01-26T23:15:50.584Z,70.85
2023-01-26T23:20:52.331Z,70.88
2023-01-26T23:25:54.654Z,71.10
2023-01-26T23:30:57.682Z,66.55
2023-01-26T23:36:00.148Z,57.58
2023-01-26T23:41:02.155Z,59.40
2023-01-26T23:46:05.692Z,49.55
2023-01-26T23:51:09.913Z,47.60
2023-01-26T23:56:17.456Z,48.65
